Time;durP1;ratioP1;P1;durP2;ratioP2;P2;SDS_P1;SDS_P2;PMS_P1;PMS_P2;Temp;Humidity;BMP_temperature;BMP_pressure;BME280_temperature;BME280_humidity;BME280_pressure;Samples;Min_cycle;Max_cycle;Signal;HPM_P1;HPM_P2
2021/12/11 00:04:46;;;;;;;24.97;16.80;;;3.70;99.90;;;;;;10390713;28;20252;-72
2021/12/11 00:09:52;;;;;;;23.70;15.43;;;3.70;99.90;;;;;;10405291;28;20224;-72
2021/12/11 00:15:11;;;;;;;25.30;16.07;;;3.70;99.90;;;;;;10396634;28;20230;-71
2021/12/11 00:20:24;;;;;;;21.30;15.63;;;3.70;99.90;;;;;;10390786;28;20317;-74
2021/12/11 00:25:25;;;;;;;23.43;15.40;;;3.80;99.90;;;;;;10402708;28;20220;-72
2021/12/11 00:30:31;;;;;;;22.83;14.53;;;3.80;99.90;;;;;;10385693;28;20224;-71
2021/12/11 00:35:53;;;;;;;20.20;14.93;;;3.70;99.90;;;;;;10392688;28;20811;-73
2021/12/11 00:40:55;;;;;;;21.57;15.37;;;3.70;99.90;;;;;;10393334;28;20300;-71
2021/12/11 00:46:07;;;;;;;21.53;14.93;;;3.70;99.90;;;;;;10393446;28;20222;-73
2021/12/11 00:51:15;;;;;;;21.23;14.40;;;3.70;99.90;;;;;;10405517;28;20239;-72
2021/12/11 00:56:39;;;;;;;23.77;16.83;;;3.70;99.90;;;;;;10399800;28;20229;-71
2021/12/11 01:01:56;;;;;;;22.87;15.93;;;3.70;99.90;;;;;;10404968;28;20240;-71
2021/12/11 01:07:32;;;;;;;21.27;15.00;;;3.70;99.90;;;;;;10401271;28;20223;-73
2021/12/11 01:12:46;;;;;;;20.83;14.87;;;3.70;99.90;;;;;;10398989;28;20225;-71
2021/12/11 01:23:34;;;;;;;21.97;16.57;;;3.80;99.90;;;;;;10397332;28;20240;-72
2021/12/11 01:28:36;;;;;;;22.37;15.07;;;3.80;99.90;;;;;;10396434;28;20244;-71
2021/12/11 01:33:39;;;;;;;20.00;14.60;;;3.80;99.90;;;;;;10410253;28;20227;-71
2021/12/11 01:38:43;;;;;;;20.63;14.57;;;3.80;99.90;;;;;;10376906;28;20858;-72
2021/12/11 01:43:48;;;;;;;20.80;15.87;;;3.70;99.90;;;;;;10388162;28;20225;-73
2021/12/11 01:48:53;;;;;;;23.57;15.87;;;3.70;99.90;;;;;;10388541;28;20291;-72
2021/12/11 01:54:11;;;;;;;20.20;15.00;;;3.70;99.90;;;;;;10387629;28;20224;-73
2021/12/11 01:59:25;;;;;;;20.63;14.77;;;3.80;99.90;;;;;;10386262;28;20256;-73
2021/12/11 02:04:28;;;;;;;20.70;15.00;;;3.70;99.90;;;;;;10405118;28;20592;-73
2021/12/11 02:09:33;;;;;;;20.70;15.87;;;3.70;99.90;;;;;;10392307;28;20228;-72
2021/12/11 02:14:40;;;;;;;21.27;15.40;;;3.70;99.90;;;;;;10386757;28;20248;-72
2021/12/11 02:19:44;;;;;;;21.17;15.67;;;3.70;99.90;;;;;;10400093;28;20229;-72
2021/12/11 02:24:51;;;;;;;20.87;15.27;;;3.70;99.90;;;;;;10397359;28;20217;-72
2021/12/11 02:30:12;;;;;;;23.00;16.43;;;3.70;99.90;;;;;;10398317;28;21076;-71
2021/12/11 02:35:24;;;;;;;21.77;15.77;;;3.70;99.90;;;;;;10403135;28;20256;-72
2021/12/11 02:40:28;;;;;;;22.40;15.83;;;3.70;99.90;;;;;;10396765;28;20224;-72
2021/12/11 02:45:28;;;;;;;20.87;15.83;;;3.70;99.90;;;;;;10397390;28;20336;-72
2021/12/11 02:50:32;;;;;;;23.40;17.03;;;3.70;99.90;;;;;;10391067;28;20312;-72
2021/12/11 02:56:07;;;;;;;20.47;16.10;;;3.60;99.90;;;;;;10397981;28;20233;-71
2021/12/11 03:01:26;;;;;;;23.97;16.07;;;3.60;99.90;;;;;;10353297;28;20638;-71
2021/12/11 03:06:35;;;;;;;23.27;16.27;;;3.70;99.90;;;;;;10390469;28;20301;-71
2021/12/11 03:11:36;;;;;;;23.83;17.10;;;3.70;99.90;;;;;;10402508;28;20231;-71
2021/12/11 03:16:39;;;;;;;24.20;16.80;;;3.70;99.90;;;;;;10400303;28;20228;-72
2021/12/11 03:21:40;;;;;;;21.07;15.90;;;3.70;99.90;;;;;;10387816;28;20868;-71
2021/12/11 03:26:43;;;;;;;22.30;16.87;;;3.70;99.90;;;;;;10404983;28;20231;-71
2021/12/11 03:31:44;;;;;;;18.60;15.10;;;3.70;99.90;;;;;;10393636;28;20291;-70
2021/12/11 03:36:46;;;;;;;20.77;16.10;;;3.70;99.90;;;;;;10397702;28;20264;-71
2021/12/11 03:41:51;;;;;;;23.27;16.37;;;3.70;99.90;;;;;;10399514;28;20715;-71
2021/12/11 03:46:54;;;;;;;18.73;14.63;;;3.70;99.90;;;;;;10397437;28;20714;-73
2021/12/11 03:51:57;;;;;;;22.57;16.80;;;3.70;99.90;;;;;;10396498;28;20697;-71
2021/12/11 03:56:58;;;;;;;20.93;16.07;;;3.70;99.90;;;;;;10398507;28;20248;-71
2021/12/11 04:02:07;;;;;;;21.07;16.37;;;3.70;99.90;;;;;;10395435;28;20896;-71
2021/12/11 04:07:13;;;;;;;20.23;15.67;;;3.70;99.90;;;;;;10400385;28;20659;-70
2021/12/11 04:12:14;;;;;;;20.47;14.87;;;3.70;99.90;;;;;;10397066;28;20217;-70
2021/12/11 04:17:22;;;;;;;19.30;15.03;;;3.70;99.90;;;;;;10401771;28;20311;-70
2021/12/11 04:22:24;;;;;;;19.63;15.43;;;3.70;99.90;;;;;;10400729;28;20220;-71
2021/12/11 04:27:25;;;;;;;19.47;15.87;;;3.70;99.90;;;;;;10397914;28;20222;-71
2021/12/11 04:32:28;;;;;;;18.73;14.73;;;3.70;99.90;;;;;;10394866;28;20217;-70
2021/12/11 04:37:30;;;;;;;20.20;15.00;;;3.70;99.90;;;;;;10400939;28;20225;-71
2021/12/11 04:42:51;;;;;;;20.53;15.40;;;3.70;99.90;;;;;;10399464;28;20220;-71
2021/12/11 04:48:15;;;;;;;21.33;15.87;;;3.70;99.90;;;;;;10392873;28;20284;-71
2021/12/11 04:58:54;;;;;;;20.33;15.53;;;3.70;99.90;;;;;;10389310;28;20221;-71
2021/12/11 05:09:24;;;;;;;19.97;15.60;;;3.80;99.90;;;;;;10386802;28;20224;-71
2021/12/11 05:14:25;;;;;;;18.53;14.83;;;3.70;99.90;;;;;;10397057;28;20216;-71
2021/12/11 05:19:26;;;;;;;20.17;15.40;;;3.80;99.90;;;;;;10394951;28;20232;-70
2021/12/11 05:24:28;;;;;;;19.40;15.20;;;3.70;99.90;;;;;;10388417;28;20213;-70
2021/12/11 05:29:29;;;;;;;21.43;16.10;;;3.70;99.90;;;;;;10392616;28;20229;-70
2021/12/11 05:34:29;;;;;;;22.57;17.57;;;3.70;99.90;;;;;;10401037;28;20373;-70
2021/12/11 05:39:30;;;;;;;19.77;15.57;;;3.70;99.90;;;;;;10405087;28;20225;-70
2021/12/11 05:44:31;;;;;;;21.73;17.00;;;3.70;99.90;;;;;;10387166;28;20576;-69
2021/12/11 05:49:34;;;;;;;22.73;16.83;;;3.70;99.90;;;;;;10391370;28;20224;-71
2021/12/11 05:54:36;;;;;;;20.67;17.40;;;3.70;99.90;;;;;;10399099;28;20230;-70
2021/12/11 05:59:42;;;;;;;20.27;16.17;;;3.70;99.90;;;;;;10385025;28;20229;-70
2021/12/11 06:04:47;;;;;;;20.40;16.67;;;3.70;99.90;;;;;;10390777;28;20248;-69
2021/12/11 06:09:53;;;;;;;20.10;16.33;;;3.70;99.90;;;;;;10385970;28;20845;-70
2021/12/11 06:14:54;;;;;;;22.80;17.03;;;3.70;99.90;;;;;;10393557;28;20307;-70
2021/12/11 06:19:57;;;;;;;20.67;16.60;;;3.70;99.90;;;;;;10389075;28;20279;-71
2021/12/11 06:25:10;;;;;;;22.23;17.47;;;3.80;99.90;;;;;;10389907;28;20883;-71
2021/12/11 06:30:12;;;;;;;20.70;16.60;;;3.80;99.90;;;;;;10388570;28;20224;-71
2021/12/11 06:35:20;;;;;;;22.17;16.93;;;3.80;99.90;;;;;;10396327;28;20280;-72
2021/12/11 06:40:22;;;;;;;24.57;18.17;;;3.80;99.90;;;;;;10398729;28;20247;-72
2021/12/11 06:45:25;;;;;;;20.83;16.93;;;3.80;99.90;;;;;;10387228;28;20186;-72
2021/12/11 06:50:26;;;;;;;25.77;18.97;;;3.80;99.90;;;;;;10394694;28;20223;-72
2021/12/11 06:55:27;;;;;;;23.23;18.03;;;3.80;99.90;;;;;;10396950;28;20677;-71
2021/12/11 07:00:28;;;;;;;20.43;16.93;;;3.80;99.90;;;;;;10389967;28;20225;-71
2021/12/11 07:05:29;;;;;;;24.00;18.63;;;3.80;99.90;;;;;;10395120;28;20454;-72
2021/12/11 07:10:30;;;;;;;22.17;17.77;;;3.80;99.90;;;;;;10382828;28;20240;-71
2021/12/11 07:15:31;;;;;;;22.20;17.50;;;3.80;99.90;;;;;;10392672;28;20232;-71
2021/12/11 07:20:32;;;;;;;60.30;35.83;;;3.80;99.90;;;;;;10390213;28;20228;-71
2021/12/11 07:25:47;;;;;;;61.67;39.10;;;3.80;99.90;;;;;;10405099;28;20221;-70
2021/12/11 07:30:50;;;;;;;33.13;22.87;;;3.80;99.90;;;;;;10388758;28;20350;-70
2021/12/11 07:35:52;;;;;;;32.50;23.20;;;3.80;99.90;;;;;;10399104;28;20258;-70
2021/12/11 07:40:57;;;;;;;41.80;28.37;;;3.90;99.90;;;;;;10390425;28;20301;-70
2021/12/11 07:45:59;;;;;;;28.10;21.67;;;4.00;99.90;;;;;;10392070;28;20255;-71
2021/12/11 07:51:00;;;;;;;24.67;19.33;;;4.00;99.90;;;;;;10393262;28;20880;-70
2021/12/11 07:56:01;;;;;;;22.60;17.63;;;4.00;99.90;;;;;;10405019;28;20217;-70
2021/12/11 08:01:05;;;;;;;23.93;19.13;;;4.10;99.90;;;;;;10406827;28;20224;-72
2021/12/11 08:06:08;;;;;;;27.97;19.07;;;4.20;99.90;;;;;;10400028;28;20213;-72
2021/12/11 08:11:14;;;;;;;27.30;19.63;;;4.20;99.90;;;;;;10394018;28;20220;-71
2021/12/11 08:16:19;;;;;;;22.90;18.37;;;4.30;99.90;;;;;;10396896;28;20239;-72
2021/12/11 08:21:22;;;;;;;24.77;19.07;;;4.30;99.90;;;;;;10391706;28;20217;-75
2021/12/11 08:26:25;;;;;;;22.70;18.67;;;4.40;99.90;;;;;;10397154;28;20259;-72
2021/12/11 08:31:25;;;;;;;24.20;18.93;;;4.50;99.90;;;;;;10394678;28;20232;-72
2021/12/11 08:36:29;;;;;;;25.17;19.37;;;4.50;99.90;;;;;;10403783;28;20228;-71
2021/12/11 08:41:30;;;;;;;23.97;18.97;;;4.60;99.90;;;;;;10399085;28;20856;-70
2021/12/11 08:46:33;;;;;;;24.07;20.20;;;4.60;99.90;;;;;;10389701;28;20217;-72
2021/12/11 08:51:41;;;;;;;23.03;18.67;;;4.70;99.90;;;;;;10397487;28;20228;-71
2021/12/11 08:56:43;;;;;;;25.40;20.30;;;5.00;99.90;;;;;;10393650;28;20668;-69
2021/12/11 09:01:52;;;;;;;22.90;18.90;;;5.20;99.90;;;;;;10403572;28;20217;-70
2021/12/11 09:07:00;;;;;;;26.07;19.90;;;5.30;99.90;;;;;;10408393;28;20256;-70
2021/12/11 09:12:14;;;;;;;26.30;19.80;;;5.40;99.90;;;;;;10397793;28;20221;-72
2021/12/11 09:17:25;;;;;;;25.57;19.70;;;5.40;99.90;;;;;;10399692;28;20224;-72
2021/12/11 09:22:31;;;;;;;24.00;18.00;;;5.90;99.90;;;;;;10399989;28;20296;-73
2021/12/11 09:27:41;;;;;;;20.00;15.73;;;9.00;99.90;;;;;;10401103;28;20245;-71
2021/12/11 09:32:55;;;;;;;17.33;13.53;;;11.70;99.90;;;;;;10381202;28;20676;-71
2021/12/11 09:38:12;;;;;;;15.93;14.23;;;13.70;99.90;;;;;;10390073;28;20266;-71
2021/12/11 09:43:34;;;;;;;17.50;14.77;;;15.50;96.40;;;;;;10401959;28;20712;-72
2021/12/11 09:48:39;;;;;;;17.60;14.77;;;17.10;85.20;;;;;;10389940;28;20991;-72
2021/12/11 09:53:44;;;;;;;16.63;14.77;;;18.20;71.90;;;;;;10384372;28;20310;-71
2021/12/11 09:58:45;;;;;;;15.80;14.10;;;19.20;64.30;;;;;;10390298;28;20236;-72
2021/12/11 10:04:00;;;;;;;18.43;15.50;;;19.80;59.60;;;;;;10386547;28;20696;-72
2021/12/11 10:09:17;;;;;;;16.10;14.50;;;20.20;55.60;;;;;;10391592;28;20355;-72
2021/12/11 10:14:21;;;;;;;16.27;14.67;;;19.80;56.20;;;;;;10387021;28;20277;-71
2021/12/11 10:19:29;;;;;;;16.03;14.40;;;17.60;58.60;;;;;;10390054;28;20290;-70
2021/12/11 10:24:32;;;;;;;18.43;16.13;;;14.50;70.00;;;;;;10385730;28;20221;-70
2021/12/11 10:29:32;;;;;;;18.90;16.03;;;12.50;80.70;;;;;;10389656;28;20216;-70
2021/12/11 10:34:34;;;;;;;18.80;15.97;;;11.60;85.60;;;;;;10399422;28;20710;-71
2021/12/11 10:39:37;;;;;;;18.50;15.40;;;11.00;91.40;;;;;;10387797;28;20578;-71
2021/12/11 10:44:43;;;;;;;17.67;14.83;;;11.30;94.10;;;;;;10391198;28;20211;-71
2021/12/11 10:49:46;;;;;;;16.10;14.07;;;15.30;84.60;;;;;;10385277;28;20227;-70
2021/12/11 10:54:51;;;;;;;17.80;14.07;;;17.00;69.70;;;;;;10403307;28;20221;-70
2021/12/11 10:59:54;;;;;;;13.40;12.00;;;17.70;65.30;;;;;;10397009;28;20318;-70
2021/12/11 11:05:07;;;;;;;13.80;12.33;;;18.30;63.60;;;;;;10401725;28;20671;-70
2021/12/11 11:10:21;;;;;;;14.37;12.23;;;19.60;57.40;;;;;;10397727;28;20221;-71
2021/12/11 11:15:25;;;;;;;13.63;12.23;;;20.20;53.80;;;;;;10392248;28;20262;-71
2021/12/11 11:20:33;;;;;;;13.53;12.13;;;16.60;60.60;;;;;;10401324;28;20235;-71
2021/12/11 11:25:41;;;;;;;15.07;13.37;;;13.30;72.80;;;;;;10390949;28;20223;-70
2021/12/11 11:30:48;;;;;;;14.33;12.40;;;11.20;83.20;;;;;;10397189;28;20230;-71
2021/12/11 11:35:50;;;;;;;14.87;13.13;;;9.90;91.20;;;;;;10398707;28;20787;-71
2021/12/11 11:40:54;;;;;;;15.67;11.43;;;8.90;95.50;;;;;;10390536;28;20311;-69
2021/12/11 11:45:56;;;;;;;13.60;11.07;;;8.20;98.70;;;;;;10395862;28;20219;-70
2021/12/11 11:51:01;;;;;;;15.67;10.57;;;8.10;99.90;;;;;;10396230;28;20230;-70
2021/12/11 11:56:09;;;;;;;15.50;9.53;;;8.00;99.90;;;;;;10387498;28;20806;-71
2021/12/11 12:01:14;;;;;;;13.90;9.40;;;8.20;99.90;;;;;;10394740;28;20285;-71
2021/12/11 12:06:25;;;;;;;11.90;9.00;;;8.20;99.90;;;;;;10392866;28;20243;-71
2021/12/11 12:11:31;;;;;;;12.77;9.07;;;8.20;99.90;;;;;;10388502;28;20271;-71
2021/12/11 12:16:33;;;;;;;12.03;8.87;;;8.00;99.90;;;;;;10396318;28;20321;-71
2021/12/11 12:21:37;;;;;;;13.73;9.10;;;7.80;99.90;;;;;;10395289;28;20216;-70
2021/12/11 12:26:39;;;;;;;14.30;9.33;;;7.80;99.90;;;;;;10398344;28;20272;-70
2021/12/11 12:31:46;;;;;;;15.83;10.33;;;7.90;99.90;;;;;;10396027;28;20604;-69
2021/12/11 12:36:48;;;;;;;13.07;9.03;;;8.20;99.90;;;;;;10394492;28;20708;-70
2021/12/11 12:42:04;;;;;;;13.90;8.33;;;8.50;99.90;;;;;;10397346;28;20222;-71
2021/12/11 12:47:16;;;;;;;11.33;8.57;;;8.60;99.90;;;;;;10390571;28;20850;-71
2021/12/11 12:52:28;;;;;;;13.67;7.43;;;8.70;99.90;;;;;;10389203;28;20718;-69
2021/12/11 12:57:34;;;;;;;11.27;8.33;;;8.60;99.90;;;;;;10393975;28;20231;-70
2021/12/11 13:02:36;;;;;;;15.90;9.47;;;8.40;99.90;;;;;;10400684;28;20219;-70
2021/12/11 13:07:37;;;;;;;13.63;9.23;;;8.20;99.90;;;;;;10400445;28;20259;-70
2021/12/11 13:12:42;;;;;;;12.97;9.90;;;8.10;99.90;;;;;;10394400;28;20219;-71
2021/12/11 13:17:48;;;;;;;14.47;10.83;;;7.90;99.90;;;;;;10386266;28;20220;-71
2021/12/11 13:22:50;;;;;;;15.50;10.77;;;7.80;99.90;;;;;;10394123;28;20223;-71
2021/12/11 13:27:56;;;;;;;13.17;10.30;;;7.70;99.90;;;;;;10395366;28;20606;-71
2021/12/11 13:32:58;;;;;;;14.63;10.47;;;7.60;99.90;;;;;;10391936;28;20265;-71
2021/12/11 13:37:59;;;;;;;14.77;9.83;;;7.40;99.90;;;;;;10394092;28;20735;-71
2021/12/11 13:43:00;;;;;;;14.17;9.53;;;7.40;99.90;;;;;;10390981;28;20315;-72
2021/12/11 13:48:04;;;;;;;14.30;8.83;;;7.30;99.90;;;;;;10387447;28;20717;-71
2021/12/11 13:53:05;;;;;;;13.53;8.63;;;7.20;99.90;;;;;;10389358;28;20328;-71
2021/12/11 13:58:13;;;;;;;14.83;9.17;;;7.10;99.90;;;;;;10387226;28;20331;-71
2021/12/11 14:03:17;;;;;;;13.40;9.87;;;6.90;99.90;;;;;;10387675;28;20226;-70
2021/12/11 14:08:19;;;;;;;14.07;10.73;;;6.80;99.90;;;;;;10390072;28;20217;-71
2021/12/11 14:13:21;;;;;;;13.07;9.63;;;6.60;99.90;;;;;;10387214;28;20324;-70
2021/12/11 14:18:22;;;;;;;11.70;9.23;;;6.50;99.90;;;;;;10388026;28;20229;-71
2021/12/11 14:23:27;;;;;;;14.33;9.40;;;6.30;99.90;;;;;;10386415;28;20217;-70
2021/12/11 14:28:29;;;;;;;12.47;8.93;;;6.30;99.90;;;;;;10409037;28;20238;-71
2021/12/11 14:33:32;;;;;;;10.77;7.80;;;6.20;99.90;;;;;;10395542;28;20232;-71
2021/12/11 14:38:37;;;;;;;13.50;8.93;;;6.20;99.90;;;;;;10406215;28;20221;-72
2021/12/11 14:43:38;;;;;;;12.63;8.80;;;6.10;99.90;;;;;;10400713;28;20215;-71
2021/12/11 14:48:39;;;;;;;12.20;8.90;;;6.00;99.90;;;;;;10397941;28;20250;-70
2021/12/11 14:53:42;;;;;;;12.10;8.33;;;5.90;99.90;;;;;;10393205;28;20231;-70
2021/12/11 14:58:45;;;;;;;10.97;7.77;;;5.90;99.90;;;;;;10407941;28;20641;-71
2021/12/11 15:03:46;;;;;;;10.70;7.77;;;5.90;99.90;;;;;;10399818;28;20642;-70
2021/12/11 15:08:47;;;;;;;17.10;9.10;;;5.80;99.90;;;;;;10398721;28;20217;-70
2021/12/11 15:13:49;;;;;;;9.70;7.13;;;5.80;99.90;;;;;;10414401;28;20225;-70
2021/12/11 15:18:51;;;;;;;9.77;7.53;;;5.80;99.90;;;;;;10399692;28;20593;-71
2021/12/11 15:23:58;;;;;;;9.67;7.13;;;5.80;99.90;;;;;;10390350;28;20220;-70
2021/12/11 15:29:00;;;;;;;12.57;8.33;;;5.70;99.90;;;;;;10396530;28;20689;-70
2021/12/11 15:34:04;;;;;;;12.33;8.93;;;5.70;99.90;;;;;;10393712;28;20232;-71
2021/12/11 15:39:31;;;;;;;13.23;8.73;;;5.70;99.90;;;;;;10403072;28;20259;-71
2021/12/11 15:44:43;;;;;;;12.23;9.53;;;5.70;99.90;;;;;;10409224;28;20212;-71
2021/12/11 15:49:44;;;;;;;13.57;10.67;;;5.60;99.90;;;;;;10399781;28;20231;-70
2021/12/11 15:54:45;;;;;;;15.23;10.27;;;5.60;99.90;;;;;;10389020;28;20632;-70
2021/12/11 15:59:49;;;;;;;15.67;10.87;;;5.60;99.90;;;;;;10396008;28;20286;-71
2021/12/11 16:04:50;;;;;;;14.27;10.73;;;5.60;99.90;;;;;;10389674;28;20229;-71
2021/12/11 16:09:52;;;;;;;16.57;11.10;;;5.60;99.90;;;;;;10395727;28;20224;-71
2021/12/11 16:14:54;;;;;;;16.27;11.20;;;5.60;99.90;;;;;;10389548;28;20228;-71
2021/12/11 16:20:01;;;;;;;17.87;12.27;;;5.60;99.90;;;;;;10395581;28;20228;-71
2021/12/11 16:25:11;;;;;;;17.13;11.57;;;5.60;99.90;;;;;;10391090;28;20225;-72
2021/12/11 16:30:20;;;;;;;16.93;12.07;;;5.60;99.90;;;;;;10394081;28;20225;-70
2021/12/11 16:35:22;;;;;;;17.10;11.87;;;5.50;99.90;;;;;;10395213;28;20208;-71
2021/12/11 16:40:29;;;;;;;15.80;11.57;;;5.60;99.90;;;;;;10398528;28;20216;-69
2021/12/11 16:45:31;;;;;;;16.80;12.73;;;5.60;99.90;;;;;;10387082;28;20304;-72
2021/12/11 16:50:39;;;;;;;18.53;12.37;;;5.60;99.90;;;;;;10410844;28;20247;-72
2021/12/11 16:55:40;;;;;;;19.00;12.07;;;5.60;99.90;;;;;;10401313;28;20318;-71
2021/12/11 17:00:46;;;;;;;16.13;12.50;;;5.60;99.90;;;;;;10394187;28;20243;-71
2021/12/11 17:05:47;;;;;;;18.50;12.90;;;5.60;99.90;;;;;;10387076;28;20238;-71
2021/12/11 17:10:51;;;;;;;19.20;12.77;;;5.70;99.90;;;;;;10398448;28;20244;-70
2021/12/11 17:15:53;;;;;;;16.70;11.77;;;5.60;99.90;;;;;;10407202;28;20236;-72
2021/12/11 17:20:57;;;;;;;16.03;12.23;;;5.70;99.90;;;;;;10406788;28;20235;-72
2021/12/11 17:25:59;;;;;;;17.40;12.73;;;5.60;99.90;;;;;;10391896;28;20213;-71
2021/12/11 17:31:00;;;;;;;17.13;12.53;;;5.60;99.90;;;;;;10390805;28;20224;-71
2021/12/11 17:36:05;;;;;;;17.60;12.67;;;5.60;99.90;;;;;;10385916;28;20276;-71
2021/12/11 17:47:07;;;;;;;19.83;12.97;;;5.60;99.90;;;;;;10384337;28;20225;-71
2021/12/11 17:52:09;;;;;;;18.83;12.53;;;5.60;99.90;;;;;;10387774;28;20327;-70
2021/12/11 17:57:10;;;;;;;17.93;11.87;;;5.50;99.90;;;;;;10388731;28;20248;-71
2021/12/11 18:02:25;;;;;;;16.63;11.23;;;5.40;99.90;;;;;;10387590;28;20220;-70
2021/12/11 18:07:28;;;;;;;16.27;12.10;;;5.40;99.90;;;;;;10386518;28;20236;-72
2021/12/11 18:12:38;;;;;;;16.87;11.40;;;5.40;99.90;;;;;;10389884;28;20263;-71
2021/12/11 18:17:44;;;;;;;16.87;11.53;;;5.30;99.90;;;;;;10383667;28;20225;-71
2021/12/11 18:22:46;;;;;;;16.70;11.80;;;5.30;99.90;;;;;;10385184;28;20644;-70
2021/12/11 18:27:47;;;;;;;15.90;11.33;;;5.30;99.90;;;;;;10388800;28;20708;-70
2021/12/11 18:32:48;;;;;;;16.00;11.60;;;5.30;99.90;;;;;;10397232;28;20228;-71
2021/12/11 18:37:50;;;;;;;18.27;11.63;;;5.20;99.90;;;;;;10383402;28;20285;-71
2021/12/11 18:42:53;;;;;;;12.83;10.33;;;5.30;99.90;;;;;;10391775;28;20596;-71
2021/12/11 18:47:54;;;;;;;19.27;11.60;;;5.30;99.90;;;;;;10395491;28;20221;-71
2021/12/11 18:52:56;;;;;;;18.43;12.83;;;5.30;99.90;;;;;;10383164;28;20704;-72
2021/12/11 18:58:03;;;;;;;20.53;12.17;;;5.20;99.90;;;;;;10399989;28;20722;-71
2021/12/11 19:03:05;;;;;;;18.40;12.10;;;5.10;99.90;;;;;;10390211;28;20705;-71
2021/12/11 19:08:08;;;;;;;17.57;11.30;;;4.90;99.90;;;;;;10390577;28;20225;-71
2021/12/11 19:13:09;;;;;;;18.70;11.53;;;4.70;99.90;;;;;;10392103;28;20729;-70
2021/12/11 19:18:11;;;;;;;18.40;12.03;;;4.60;99.90;;;;;;10394086;28;20280;-70
2021/12/11 19:23:13;;;;;;;17.43;11.40;;;4.60;99.90;;;;;;10394522;28;20284;-70
2021/12/11 19:28:19;;;;;;;21.60;13.20;;;4.50;99.90;;;;;;10407452;28;20224;-70
2021/12/11 19:33:25;;;;;;;16.00;11.10;;;4.50;99.90;;;;;;10397495;28;20256;-71
2021/12/11 19:38:26;;;;;;;14.90;10.60;;;4.60;99.90;;;;;;10391049;28;20231;-71
2021/12/11 19:43:28;;;;;;;20.37;14.13;;;4.60;99.90;;;;;;10396540;28;20217;-72
2021/12/11 19:48:30;;;;;;;17.20;12.77;;;4.70;99.90;;;;;;10398795;28;20229;-71
2021/12/11 19:53:31;;;;;;;18.93;12.67;;;4.90;99.90;;;;;;10394131;28;20225;-71
2021/12/11 19:58:32;;;;;;;16.33;11.80;;;5.00;99.90;;;;;;10403994;28;20236;-72
2021/12/11 20:03:35;;;;;;;17.93;11.30;;;5.10;99.90;;;;;;10399433;28;20692;-71
2021/12/11 20:09:04;;;;;;;18.77;13.30;;;5.20;99.90;;;;;;10406305;28;20275;-71
2021/12/11 20:14:05;;;;;;;14.50;10.40;;;5.30;99.90;;;;;;10405176;28;20229;-71
2021/12/11 20:19:12;;;;;;;15.10;8.90;;;5.30;99.90;;;;;;10400404;28;20263;-71
2021/12/11 20:24:14;;;;;;;18.73;13.37;;;5.30;99.90;;;;;;10399682;28;20692;-71
2021/12/11 20:29:45;;;;;;;13.90;9.20;;;5.30;99.90;;;;;;10392389;28;20221;-71
2021/12/11 20:34:48;;;;;;;13.40;9.33;;;5.40;99.90;;;;;;10399006;28;20221;-73
2021/12/11 20:39:50;;;;;;;13.07;9.33;;;5.40;99.90;;;;;;10390446;28;20528;-71
2021/12/11 20:44:58;;;;;;;12.83;9.00;;;5.40;99.90;;;;;;10395320;28;20440;-70
2021/12/11 20:50:02;;;;;;;16.27;10.63;;;5.40;99.90;;;;;;10409539;28;20255;-72
2021/12/11 20:55:12;;;;;;;13.17;8.97;;;5.40;99.90;;;;;;10391865;28;20336;-71
2021/12/11 21:00:22;;;;;;;14.27;9.37;;;5.40;99.90;;;;;;10405978;28;20238;-72
2021/12/11 21:05:36;;;;;;;13.80;8.27;;;5.40;99.90;;;;;;10398918;28;20235;-72
2021/12/11 21:10:55;;;;;;;13.70;8.50;;;5.40;99.90;;;;;;10395512;28;20567;-71
2021/12/11 21:16:03;;;;;;;13.53;8.93;;;5.40;99.90;;;;;;10391684;28;20227;-72
2021/12/11 21:21:07;;;;;;;13.13;8.07;;;5.40;99.90;;;;;;10390371;28;20700;-72
2021/12/11 21:26:10;;;;;;;16.27;8.37;;;5.50;99.90;;;;;;10392444;28;20225;-71
2021/12/11 21:31:15;;;;;;;14.67;8.80;;;5.50;99.90;;;;;;10395160;28;20225;-71
2021/12/11 21:36:22;;;;;;;15.47;8.07;;;5.40;99.90;;;;;;10392994;28;20237;-70
2021/12/11 21:41:33;;;;;;;12.07;7.83;;;5.40;99.90;;;;;;10385188;28;20221;-71
2021/12/11 21:46:37;;;;;;;12.63;7.57;;;5.40;99.90;;;;;;10374068;28;20221;-71
2021/12/11 21:52:00;;;;;;;14.93;8.93;;;5.30;99.90;;;;;;10396136;28;20216;-71
2021/12/11 21:57:02;;;;;;;15.07;7.90;;;5.30;99.90;;;;;;10391620;28;20231;-72
2021/12/11 22:02:25;;;;;;;19.07;7.60;;;5.30;99.90;;;;;;10390494;28;20254;-70
2021/12/11 22:07:33;;;;;;;13.03;7.37;;;5.10;99.90;;;;;;10387026;28;20227;-71
2021/12/11 22:12:38;;;;;;;10.73;6.47;;;4.90;99.90;;;;;;10385543;28;20217;-74
2021/12/11 22:17:39;;;;;;;11.57;6.53;;;4.80;99.90;;;;;;10391638;28;20229;-71
2021/12/11 22:22:43;;;;;;;12.67;6.73;;;4.70;99.90;;;;;;10386153;28;20274;-71
2021/12/11 22:27:45;;;;;;;11.20;7.07;;;4.80;99.90;;;;;;10395405;28;20221;-72
2021/12/11 22:32:46;;;;;;;11.40;5.93;;;4.80;99.90;;;;;;10393284;28;20220;-72
2021/12/11 22:37:47;;;;;;;9.57;5.33;;;4.70;99.90;;;;;;10393458;28;20273;-71
2021/12/11 22:42:50;;;;;;;9.63;6.10;;;4.60;99.90;;;;;;10398443;28;20910;-71
2021/12/11 22:47:52;;;;;;;8.10;5.13;;;4.50;99.90;;;;;;10400004;28;20235;-70
2021/12/11 22:52:55;;;;;;;11.37;5.87;;;4.40;99.90;;;;;;10395892;28;20806;-69
2021/12/11 22:58:04;;;;;;;12.43;6.33;;;4.20;99.90;;;;;;10406328;28;20619;-70
2021/12/11 23:03:08;;;;;;;12.33;6.90;;;4.10;99.90;;;;;;10408460;28;20976;-70
2021/12/11 23:08:11;;;;;;;13.07;6.50;;;4.10;99.90;;;;;;10399699;28;20212;-70
2021/12/11 23:13:20;;;;;;;13.97;7.63;;;4.00;99.90;;;;;;10390823;28;20778;-70
2021/12/11 23:18:40;;;;;;;15.50;7.27;;;3.90;99.90;;;;;;10395739;28;21076;-72
2021/12/11 23:23:52;;;;;;;15.00;7.53;;;3.90;99.90;;;;;;10393607;28;20248;-71
2021/12/11 23:29:12;;;;;;;10.87;6.87;;;3.80;99.90;;;;;;10380340;28;20230;-71
2021/12/11 23:34:21;;;;;;;10.90;6.50;;;3.70;99.90;;;;;;10362712;28;20231;-71
2021/12/11 23:40:01;;;;;;;13.20;7.13;;;3.70;99.90;;;;;;10396518;28;20232;-71
2021/12/11 23:45:28;;;;;;;11.50;6.70;;;3.60;99.90;;;;;;10311127;28;20214;-72
2021/12/11 23:50:39;;;;;;;13.10;7.13;;;3.60;99.90;;;;;;10399255;28;20563;-70
2021/12/11 23:55:49;;;;;;;13.47;6.37;;;3.60;99.90;;;;;;10379855;28;20248;-69
